Time;durP1;ratioP1;P1;durP2;ratioP2;P2;SDS_P1;SDS_P2;PMS_P1;PMS_P2;Temp;Humidity;BMP_temperature;BMP_pressure;BME280_temperature;BME280_humidity;BME280_pressure;Samples;Min_cycle;Max_cycle;Signal;HPM_P1;HPM_P2
2021/11/15 00:01:24;;;;;;;1.60;1.40;;;;;;;9.89;100.00;60892.56;4882843;28;20029;-88
2021/11/15 00:04:02;;;;;;;1.50;1.40;;;;;;;-145.06;100.00;60892.56;4878023;28;20045;-88
2021/11/15 00:06:41;;;;;;;1.40;1.30;;;;;;;-145.06;100.00;60892.56;4865278;28;20021;-88
2021/11/15 00:09:20;;;;;;;1.55;1.40;;;;;;;-145.06;100.00;60892.56;4877404;28;20025;-88
2021/11/15 00:12:01;;;;;;;1.85;1.52;;;;;;;-145.06;100.00;60892.56;4871308;28;20519;-88
2021/11/15 00:14:40;;;;;;;3.15;1.52;;;;;;;-145.06;100.00;60892.56;4873000;28;20029;-88
2021/11/15 00:17:19;;;;;;;2.05;1.35;;;;;;;-145.06;100.00;60892.56;4876057;28;20041;-88
2021/11/15 00:19:58;;;;;;;2.22;1.60;;;;;;;-145.06;100.00;60892.56;4891128;28;20037;-88
2021/11/15 00:22:37;;;;;;;1.67;1.23;;;;;;;-145.06;100.00;60892.56;4870655;28;20033;-89
2021/11/15 00:25:17;;;;;;;1.33;1.23;;;;;;;9.88;100.00;60892.56;4881798;28;20514;-88
2021/11/15 00:27:55;;;;;;;1.98;1.55;;;;;;;-145.06;100.00;60892.56;4864525;28;20037;-88
2021/11/15 00:30:35;;;;;;;1.77;1.50;;;;;;;-145.06;100.00;60892.56;4877286;28;20028;-88
2021/11/15 00:33:13;;;;;;;1.58;1.30;;;;;;;-145.06;100.00;60892.56;4872278;28;20276;-88
2021/11/15 00:35:52;;;;;;;1.75;1.30;;;;;;;-145.06;100.00;60892.56;4877785;28;20029;-89
2021/11/15 00:38:31;;;;;;;2.13;1.50;;;;;;;-145.06;100.00;60892.56;4876924;28;20032;-88
2021/11/15 00:41:10;;;;;;;2.42;1.65;;;;;;;-145.06;100.00;60892.56;4878745;28;20311;-88
2021/11/15 00:43:49;;;;;;;1.47;1.30;;;;;;;-145.06;100.00;60892.56;4881454;28;20375;-89
2021/11/15 00:46:28;;;;;;;1.75;1.45;;;;;;;-145.06;100.00;60892.56;4890376;28;20025;-88
2021/11/15 00:49:08;;;;;;;1.88;1.52;;;;;;;-145.06;100.00;60892.56;4883144;28;20033;-88
2021/11/15 00:51:46;;;;;;;2.17;1.52;;;;;;;-145.06;100.00;60892.56;4863946;28;20032;-88
2021/11/15 00:54:26;;;;;;;2.20;1.60;;;;;;;-145.06;100.00;60892.56;4874621;28;20033;-88
2021/11/15 00:57:06;;;;;;;1.73;1.55;;;;;;;-145.06;100.00;60892.56;4872428;28;20276;-88
2021/11/15 00:59:45;;;;;;;1.95;1.60;;;;;;;-145.06;100.00;60892.56;4872106;28;20033;-87
2021/11/15 01:02:24;;;;;;;2.17;1.73;;;;;;;-145.06;100.00;60892.56;4877345;28;20040;-88
2021/11/15 01:05:04;;;;;;;2.47;1.80;;;;;;;-145.06;100.00;60892.56;4876230;28;20029;-88
2021/11/15 01:07:44;;;;;;;1.67;1.40;;;;;;;-145.06;100.00;60892.56;4877984;28;20025;-88
2021/11/15 01:10:23;;;;;;;2.05;1.67;;;;;;;-145.06;100.00;60892.56;4877189;28;20551;-88
2021/11/15 01:13:02;;;;;;;1.90;1.50;;;;;;;-145.06;100.00;60892.56;4876539;28;20037;-89
2021/11/15 01:15:41;;;;;;;1.85;1.55;;;;;;;-145.06;100.00;60892.56;4864145;28;20060;-87
2021/11/15 01:18:21;;;;;;;1.60;1.40;;;;;;;-145.06;100.00;60892.56;4868526;28;20536;-87
2021/11/15 01:21:02;;;;;;;1.50;1.20;;;;;;;-145.06;100.00;60892.56;4876634;28;20021;-88
2021/11/15 01:23:43;;;;;;;1.90;1.60;;;;;;;-145.06;100.00;60892.56;4876137;28;20033;-89
2021/11/15 01:26:23;;;;;;;2.05;1.55;;;;;;;-145.06;100.00;60892.56;4865948;28;20033;-88
2021/11/15 01:29:02;;;;;;;1.75;1.55;;;;;;;-145.06;100.00;60892.56;4865745;28;20069;-88
2021/11/15 01:31:41;;;;;;;1.77;1.42;;;;;;;-145.06;100.00;60892.56;4859445;28;20033;-88
2021/11/15 01:34:21;;;;;;;2.47;1.90;;;;;;;-145.06;100.00;60892.56;4873901;28;20029;-88
2021/11/15 01:36:59;;;;;;;;;;;;;;;-145.06;100.00;60892.56;4869400;28;20029;-88
2021/11/15 01:39:41;;;;;;;1.58;1.45;;;;;;;-145.06;100.00;60892.56;4857789;28;19909;-88
2021/11/15 01:42:20;;;;;;;2.15;1.75;;;;;;;-145.06;100.00;60892.56;4873911;28;20037;-88
2021/11/15 01:44:59;;;;;;;2.13;1.70;;;;;;;-145.06;100.00;60892.56;4876147;28;20376;-87
2021/11/15 01:47:39;;;;;;;2.50;1.80;;;;;;;-145.06;100.00;60892.56;4866838;28;20028;-89
2021/11/15 01:50:19;;;;;;;2.47;1.80;;;;;;;-145.06;100.00;60892.56;4889656;28;20025;-88
2021/11/15 01:52:58;;;;;;;;;;;;;;;-145.06;100.00;60892.56;4877242;28;20372;-88
2021/11/15 01:55:39;;;;;;;2.23;1.70;;;;;;;-145.06;100.00;60892.56;4862852;28;19913;-88
2021/11/15 01:58:18;;;;;;;2.70;1.65;;;;;;;-145.06;100.00;60892.56;4871892;28;20025;-88
2021/11/15 02:00:59;;;;;;;2.78;2.00;;;;;;;-145.06;100.00;60892.56;4876577;28;20380;-87
2021/11/15 02:03:38;;;;;;;2.72;1.90;;;;;;;-145.06;100.00;60892.56;4864243;28;20747;-89
2021/11/15 02:06:17;;;;;;;1.95;1.55;;;;;;;-145.06;100.00;60892.56;4876212;28;20033;-88
2021/11/15 02:08:57;;;;;;;2.70;2.10;;;;;;;-145.06;100.00;60892.56;4880739;28;20107;-88
2021/11/15 02:11:36;;;;;;;2.10;1.73;;;;;;;-145.06;100.00;60892.56;4869037;28;20022;-88
2021/11/15 02:14:15;;;;;;;2.08;1.88;;;;;;;-145.06;100.00;60892.56;4882121;28;20040;-88
2021/11/15 02:16:54;;;;;;;2.23;2.03;;;;;;;-145.06;100.00;60892.56;4872801;28;20477;-87
2021/11/15 02:19:33;;;;;;;3.20;2.13;;;;;;;-145.06;100.00;60892.56;4877601;28;20505;-87
2021/11/15 02:22:13;;;;;;;2.60;1.77;;;;;;;-145.06;100.00;60892.56;4859392;28;20041;-89
2021/11/15 02:24:52;;;;;;;2.92;2.22;;;;;;;-145.06;100.00;60892.56;4867984;28;20368;-88
2021/11/15 02:27:31;;;;;;;2.65;2.25;;;;;;;-145.06;100.00;60892.56;4865696;28;20459;-88
2021/11/15 02:30:16;;;;;;;2.75;2.28;;;;;;;-145.06;100.00;60892.56;4865285;28;20033;-88
2021/11/15 02:32:55;;;;;;;3.28;2.28;;;;;;;-145.06;100.00;60892.56;4870085;28;20032;-88
2021/11/15 02:35:34;;;;;;;3.50;2.53;;;;;;;-145.06;100.00;60892.56;4868880;28;20029;-88
2021/11/15 02:38:13;;;;;;;3.25;2.13;;;;;;;-145.06;100.00;60892.56;4870606;28;20037;-88
2021/11/15 02:40:53;;;;;;;2.35;2.13;;;;;;;-145.06;100.00;60892.56;4856187;28;20503;-88
2021/11/15 02:43:32;;;;;;;2.30;1.88;;;;;;;-145.06;100.00;60892.56;4860378;28;20041;-88
2021/11/15 02:46:12;;;;;;;2.67;2.20;;;;;;;-145.06;100.00;60892.56;4857577;28;20037;-88
2021/11/15 02:48:51;;;;;;;2.58;2.08;;;;;;;-145.06;100.00;60892.56;4875700;28;20515;-89
2021/11/15 02:51:30;;;;;;;3.83;2.40;;;;;;;-145.06;100.00;60892.56;4875629;28;20379;-88
2021/11/15 02:54:09;;;;;;;3.30;2.45;;;;;;;-145.06;100.00;60892.56;4874572;28;20283;-88
2021/11/15 02:56:47;;;;;;;3.40;2.28;;;;;;;-145.06;100.00;60892.56;4871559;28;20037;-88
2021/11/15 02:59:26;;;;;;;2.73;2.20;;;;;;;-145.06;100.00;60892.56;4867414;28;20032;-88
2021/11/15 03:02:05;;;;;;;2.40;1.97;;;;;;;-145.06;100.00;60892.56;4869285;28;20033;-88
2021/11/15 03:04:44;;;;;;;2.83;2.20;;;;;;;-145.06;100.00;60892.56;4856534;28;20034;-87
2021/11/15 03:07:24;;;;;;;2.45;1.95;;;;;;;-145.06;100.00;60892.56;4864744;28;20041;-88
2021/11/15 03:10:03;;;;;;;2.60;2.07;;;;;;;-145.06;100.00;60892.56;4877714;28;20037;-88
2021/11/15 03:12:43;;;;;;;3.10;2.35;;;;;;;-145.06;100.00;60892.56;4874593;28;20275;-88
2021/11/15 03:15:30;;;;;;;3.65;2.72;;;;;;;-145.06;100.00;60892.56;4889637;28;20041;-88
2021/11/15 03:18:37;;;;;;;2.33;2.10;;;;;;;-145.06;100.00;60892.56;4872741;28;20028;-88
2021/11/15 03:21:19;;;;;;;2.70;2.00;;;;;;;-145.06;100.00;60892.56;4891222;28;20025;-88
2021/11/15 03:23:58;;;;;;;2.95;2.20;;;;;;;-145.06;100.00;60892.56;4886023;28;20107;-89
2021/11/15 03:26:37;;;;;;;2.53;2.33;;;;;;;-145.06;100.00;60892.56;4874762;28;20028;-87
2021/11/15 03:29:16;;;;;;;2.83;2.10;;;;;;;-145.06;100.00;60892.56;4878516;28;20056;-88
2021/11/15 03:31:55;;;;;;;2.95;2.28;;;;;;;-145.06;100.00;60892.56;4879099;28;20037;-88
2021/11/15 03:34:34;;;;;;;3.07;2.33;;;;;;;-145.06;100.00;60892.56;4859399;28;20616;-88
2021/11/15 03:37:13;;;;;;;3.72;2.80;;;;;;;-145.06;100.00;60892.56;4878226;28;20068;-88
2021/11/15 03:39:52;;;;;;;2.90;2.33;;;;;;;-145.06;100.00;60892.56;4867797;28;20040;-88
2021/11/15 03:42:31;;;;;;;3.70;2.83;;;;;;;-145.06;100.00;60892.56;4869969;28;20056;-88
2021/11/15 03:45:11;;;;;;;3.10;2.33;;;;;;;-145.06;100.00;60892.56;4859617;28;20041;-88
2021/11/15 03:47:51;;;;;;;3.80;2.65;;;;;;;-145.06;100.00;60892.56;4859814;28;20029;-88
2021/11/15 03:50:30;;;;;;;3.40;2.22;;;;;;;-145.06;100.00;60892.56;4872293;28;20352;-88
2021/11/15 03:53:12;;;;;;;3.33;2.45;;;;;;;-145.06;100.00;60892.56;4878428;28;20059;-89
2021/11/15 03:55:51;;;;;;;3.10;2.45;;;;;;;-145.06;100.00;60892.56;4879886;28;20029;-87
2021/11/15 03:58:31;;;;;;;2.65;1.98;;;;;;;-145.06;100.00;60892.56;4874072;28;20025;-88
2021/11/15 04:01:11;;;;;;;3.05;2.20;;;;;;;-145.06;100.00;60892.56;4890230;28;20551;-87
2021/11/15 04:03:54;;;;;;;3.25;2.17;;;;;;;-145.06;100.00;60892.56;4888608;28;20024;-87
2021/11/15 04:06:39;;;;;;;2.55;2.22;;;;;;;-145.06;100.00;60892.56;4878932;28;20037;-88
2021/11/15 04:09:19;;;;;;;2.65;2.17;;;;;;;9.81;100.00;60892.56;4876724;28;20475;-88
2021/11/15 04:11:58;;;;;;;2.58;2.20;;;;;;;-145.06;100.00;60892.56;4868606;28;20025;-88
2021/11/15 04:14:37;;;;;;;3.10;2.25;;;;;;;-145.06;100.00;60892.56;4873185;28;20033;-87
2021/11/15 04:17:16;;;;;;;2.73;2.10;;;;;;;-145.06;100.00;60892.56;4874831;28;20380;-87
2021/11/15 04:19:55;;;;;;;2.95;2.17;;;;;;;-145.06;100.00;60892.56;4873847;28;20263;-88
2021/11/15 04:22:35;;;;;;;3.17;2.20;;;;;;;-145.06;100.00;60892.56;4857889;28;20034;-89
2021/11/15 04:25:14;;;;;;;2.50;2.22;;;;;;;-145.06;100.00;60892.56;4870527;28;20068;-88
2021/11/15 04:27:53;;;;;;;2.53;2.00;;;;;;;-145.06;100.00;60892.56;4873647;28;20506;-88
2021/11/15 04:30:32;;;;;;;3.17;2.13;;;;;;;-145.06;100.00;60892.56;4879081;28;20037;-89
2021/11/15 04:33:11;;;;;;;2.83;2.10;;;;;;;-145.06;100.00;60892.56;4872806;28;20729;-88
2021/11/15 04:35:52;;;;;;;2.92;2.35;;;;;;;-145.06;100.00;60892.56;4870679;28;20358;-88
2021/11/15 04:38:31;;;;;;;2.83;2.28;;;;;;;-145.06;100.00;60892.56;4877538;28;20033;-88
2021/11/15 04:41:10;;;;;;;3.38;2.53;;;;;;;-145.06;100.00;60892.56;4871311;28;20041;-87
2021/11/15 04:43:49;;;;;;;2.30;1.95;;;;;;;-145.06;100.00;60892.56;4883133;28;20037;-88
2021/11/15 04:46:28;;;;;;;2.50;1.80;;;;;;;-145.06;100.00;60892.56;4868458;28;20069;-88
2021/11/15 04:49:07;;;;;;;3.22;2.08;;;;;;;-145.06;100.00;60892.56;4866631;28;20025;-88
2021/11/15 04:51:46;;;;;;;3.25;2.20;;;;;;;-145.06;100.00;60892.56;4883376;28;20359;-88
2021/11/15 04:54:25;;;;;;;2.75;2.08;;;;;;;-145.06;100.00;60892.56;4883137;28;20033;-88
2021/11/15 04:57:04;;;;;;;2.58;2.17;;;;;;;-145.06;100.00;60892.56;4887861;28;20049;-88
2021/11/15 04:59:45;;;;;;;3.00;2.13;;;;;;;-145.06;100.00;60892.56;4868699;28;20036;-88
2021/11/15 05:02:24;;;;;;;2.83;2.15;;;;;;;-145.06;100.00;60892.56;4874857;28;20020;-87
2021/11/15 05:05:04;;;;;;;2.88;2.10;;;;;;;-145.06;100.00;60892.56;4877915;28;20037;-88
2021/11/15 05:07:45;;;;;;;3.38;2.40;;;;;;;-145.06;100.00;60892.56;4877883;28;20037;-88
2021/11/15 05:10:27;;;;;;;2.70;1.98;;;;;;;-145.06;100.00;60892.56;4876532;28;20021;-87
2021/11/15 05:13:07;;;;;;;2.78;2.10;;;;;;;-145.06;100.00;60892.56;4876692;28;20032;-88
2021/11/15 05:15:46;;;;;;;3.25;2.40;;;;;;;-145.06;100.00;60892.56;4878286;28;20427;-88
2021/11/15 05:18:25;;;;;;;3.20;2.13;;;;;;;-145.06;100.00;60892.56;4872539;28;20064;-88
2021/11/15 05:21:04;;;;;;;2.20;1.83;;;;;;;-145.06;100.00;60892.56;4868468;28;20024;-87
2021/11/15 05:23:43;;;;;;;3.13;2.30;;;;;;;-145.06;100.00;60892.56;4868449;28;20049;-87
2021/11/15 05:26:23;;;;;;;2.92;1.85;;;;;;;-145.06;100.00;60892.56;4870538;28;20045;-87
2021/11/15 05:29:02;;;;;;;3.25;2.25;;;;;;;-145.06;100.00;60892.56;4873015;28;20029;-88
2021/11/15 05:31:41;;;;;;;3.05;2.20;;;;;;;-145.06;100.00;60892.56;4871063;28;20486;-87
2021/11/15 05:34:20;;;;;;;3.27;2.00;;;;;;;-145.06;100.00;60892.56;4870218;28;20032;-89
2021/11/15 05:36:59;;;;;;;3.20;2.25;;;;;;;-145.06;100.00;60892.56;4882769;28;20025;-88
2021/11/15 05:39:38;;;;;;;2.33;2.00;;;;;;;-145.06;100.00;60892.56;4876896;28;20033;-88
2021/11/15 05:42:17;;;;;;;3.23;2.13;;;;;;;-145.06;100.00;60892.56;4880507;28;20041;-88
2021/11/15 05:44:56;;;;;;;3.23;2.40;;;;;;;-145.06;100.00;60892.56;4867924;28;20379;-88
2021/11/15 05:47:35;;;;;;;3.20;2.27;;;;;;;-145.06;100.00;60892.56;4877861;28;20462;-89
2021/11/15 05:50:16;;;;;;;2.03;1.58;;;;;;;187.52;100.00;60892.56;4868335;28;20026;-88
2021/11/15 05:52:57;;;;;;;3.25;2.10;;;;;;;-145.06;100.00;60892.56;4875753;28;20044;-88
2021/11/15 05:55:36;;;;;;;3.38;2.03;;;;;;;187.52;100.00;60892.56;4868996;28;20487;-88
2021/11/15 05:58:15;;;;;;;2.65;2.00;;;;;;;-145.06;100.00;60892.56;4866840;28;20033;-87
2021/11/15 06:00:56;;;;;;;2.60;2.10;;;;;;;-145.06;100.00;60892.56;4864653;28;20029;-88
2021/11/15 06:03:35;;;;;;;3.67;2.30;;;;;;;9.60;100.00;60892.56;4869799;28;20052;-88
2021/11/15 06:06:14;;;;;;;2.70;2.20;;;;;;;-145.06;100.00;60892.56;4876989;28;20022;-88
2021/11/15 06:08:53;;;;;;;2.88;2.00;;;;;;;-145.06;100.00;60892.56;4874439;28;20660;-87
2021/11/15 06:11:32;;;;;;;2.78;2.03;;;;;;;-145.06;100.00;60892.56;4866828;28;20038;-88
2021/11/15 06:14:11;;;;;;;2.67;1.92;;;;;;;-145.06;100.00;60892.56;4868500;28;20021;-88
2021/11/15 06:16:50;;;;;;;2.72;2.00;;;;;;;-145.06;100.00;60892.56;4877822;28;20479;-88
2021/11/15 06:19:29;;;;;;;2.03;1.83;;;;;;;-145.06;100.00;60892.56;4863229;28;20025;-89
2021/11/15 06:22:09;;;;;;;3.03;2.10;;;;;;;-145.06;100.00;60892.56;4876906;28;20017;-88
2021/11/15 06:24:48;;;;;;;3.42;2.50;;;;;;;-145.06;100.00;60892.56;4882584;28;20024;-88
2021/11/15 06:27:27;;;;;;;3.30;2.43;;;;;;;-145.06;100.00;60892.56;4874779;28;20036;-88
2021/11/15 06:30:09;;;;;;;3.33;2.37;;;;;;;-145.06;100.00;60892.56;4870027;28;20367;-88
2021/11/15 06:32:48;;;;;;;3.95;2.70;;;;;;;-145.06;100.00;60892.56;4874341;28;20033;-88
2021/11/15 06:35:27;;;;;;;3.13;2.43;;;;;;;-145.06;100.00;60892.56;4876377;28;20025;-88
2021/11/15 06:38:06;;;;;;;;;;;;;;;-145.06;100.00;60892.56;4871991;28;20848;-88
2021/11/15 06:40:46;;;;;;;2.70;2.03;;;;;;;-145.06;100.00;60892.56;4870922;28;19912;-87
2021/11/15 06:43:25;;;;;;;3.38;2.00;;;;;;;-145.06;100.00;60892.56;4871524;28;20478;-89
2021/11/15 06:46:04;;;;;;;2.97;2.40;;;;;;;9.48;100.00;60892.56;4877041;28;20123;-88
2021/11/15 06:48:43;;;;;;;2.80;2.30;;;;;;;-145.06;100.00;60892.56;4878869;28;20040;-88
2021/11/15 06:51:22;;;;;;;2.73;2.17;;;;;;;-145.06;100.00;60892.56;4879930;28;20376;-89
2021/11/15 06:54:01;;;;;;;4.53;2.30;;;;;;;-145.06;100.00;60892.56;4883060;28;20025;-89
2021/11/15 06:56:40;;;;;;;4.63;2.65;;;;;;;-145.06;100.00;60892.56;4876196;28;20017;-88
2021/11/15 06:59:19;;;;;;;2.58;2.22;;;;;;;-145.06;100.00;60892.56;4866336;28;20372;-88
2021/11/15 07:01:59;;;;;;;3.15;2.30;;;;;;;-145.06;100.00;60892.56;4855932;28;20538;-88
2021/11/15 07:04:37;;;;;;;3.50;2.13;;;;;;;-145.06;100.00;60892.56;4873775;28;20953;-88
2021/11/15 07:07:17;;;;;;;3.22;2.30;;;;;;;-145.06;100.00;60892.56;4883561;28;20029;-88
2021/11/15 07:09:56;;;;;;;3.40;2.45;;;;;;;-145.06;100.00;60892.56;4875098;28;20025;-89
2021/11/15 07:12:35;;;;;;;3.33;2.40;;;;;;;-145.06;100.00;60892.56;4871923;28;20041;-89
2021/11/15 07:15:16;;;;;;;2.80;2.45;;;;;;;10.68;100.00;60892.56;4871136;28;20356;-89
2021/11/15 07:17:55;;;;;;;2.78;2.40;;;;;;;-145.06;100.00;60892.56;4882565;28;20036;-89
2021/11/15 07:20:34;;;;;;;4.13;2.27;;;;;;;-145.06;100.00;60892.56;4874095;28;20650;-87
2021/11/15 07:23:13;;;;;;;3.20;2.60;;;;;;;-145.06;100.00;60892.56;4863562;28;20033;-88
2021/11/15 07:25:54;;;;;;;3.30;2.38;;;;;;;-145.06;100.00;60892.56;4863404;28;20036;-89
2021/11/15 07:28:32;;;;;;;5.75;2.30;;;;;;;-145.06;100.00;60892.56;4862747;28;20045;-89
2021/11/15 07:31:11;;;;;;;3.40;2.65;;;;;;;-145.06;100.00;60892.56;4866438;28;20020;-89
2021/11/15 07:33:51;;;;;;;4.87;2.83;;;;;;;9.49;100.00;60892.56;4862548;28;20041;-89
2021/11/15 07:36:32;;;;;;;3.28;2.50;;;;;;;-145.06;100.00;60892.56;4866600;28;20364;-89
2021/11/15 07:39:12;;;;;;;3.60;2.60;;;;;;;-145.06;100.00;60892.56;4871659;28;20029;-89
2021/11/15 07:41:51;;;;;;;;;;;;;;;-145.06;100.00;60892.56;4891582;28;20107;-88
2021/11/15 07:44:30;;;;;;;3.05;2.13;;;;;;;-145.06;100.00;60892.56;4870682;28;19909;-88
2021/11/15 07:47:10;;;;;;;3.73;2.40;;;;;;;-145.06;100.00;60892.56;4874929;28;20033;-89
2021/11/15 07:49:49;;;;;;;3.80;2.65;;;;;;;-145.06;100.00;60892.56;4872931;28;20611;-89
2021/11/15 07:52:28;;;;;;;3.42;2.53;;;;;;;-145.06;100.00;60892.56;4869550;28;20034;-89
2021/11/15 07:55:11;;;;;;;3.83;2.75;;;;;;;-145.06;100.00;60892.56;4855064;28;20033;-89
2021/11/15 07:57:50;;;;;;;4.85;2.97;;;;;;;-145.06;100.00;60892.56;4869931;28;20064;-89
2021/11/15 08:00:29;;;;;;;4.00;2.90;;;;;;;9.51;100.00;60892.56;4859427;28;20030;-89
2021/11/15 08:03:08;;;;;;;5.88;3.28;;;;;;;-145.06;100.00;60892.56;4860360;28;20033;-89
2021/11/15 08:05:47;;;;;;;4.03;2.75;;;;;;;-145.06;100.00;60892.56;4868594;28;20065;-89
2021/11/15 08:08:26;;;;;;;3.40;2.43;;;;;;;-145.06;100.00;60892.56;4873590;28;20064;-88
2021/11/15 08:11:07;;;;;;;4.50;3.13;;;;;;;-145.06;100.00;60892.56;4878177;28;20025;-88
2021/11/15 08:13:46;;;;;;;3.95;2.95;;;;;;;-145.06;100.00;60892.56;4867838;28;20264;-89
2021/11/15 08:16:24;;;;;;;4.18;2.95;;;;;;;-145.06;100.00;60892.56;4859207;28;20034;-88
2021/11/15 08:19:04;;;;;;;4.07;3.33;;;;;;;-145.06;100.00;60892.56;4861989;28;20037;-88
2021/11/15 08:21:43;;;;;;;4.30;3.30;;;;;;;-145.06;100.00;60892.56;4868343;28;20037;-89
2021/11/15 08:24:53;;;;;;;6.10;3.70;;;;;;;-145.06;100.00;60892.56;4875958;28;20024;-89
2021/11/15 08:27:32;;;;;;;4.72;3.42;;;;;;;-145.06;100.00;60892.56;4867897;28;20024;-89
2021/11/15 08:30:12;;;;;;;4.27;3.17;;;;;;;-145.06;100.00;60892.56;4869709;28;20021;-88
2021/11/15 08:32:52;;;;;;;4.35;3.00;;;;;;;-145.06;100.00;60892.56;4878237;28;20486;-89
2021/11/15 08:35:31;;;;;;;;;;;;;;;-145.06;100.00;60892.56;4874286;28;20025;-88
2021/11/15 08:38:16;;;;;;;4.60;3.30;;;;;;;-145.06;100.00;60892.56;4858963;28;19909;-89
2021/11/15 08:40:55;;;;;;;3.88;2.70;;;;;;;-145.06;100.00;60892.56;4865512;28;20017;-89
2021/11/15 08:43:35;;;;;;;4.70;3.15;;;;;;;9.44;100.00;60892.56;4884283;28;20371;-88
2021/11/15 08:46:19;;;;;;;4.93;3.22;;;;;;;-145.06;100.00;60892.56;4878127;28;20475;-88
2021/11/15 08:49:00;;;;;;;5.05;3.15;;;;;;;-145.06;100.00;60892.56;4869059;28;20112;-89
2021/11/15 08:51:42;;;;;;;5.78;3.58;;;;;;;9.51;100.00;60892.56;4868674;28;20030;-89
2021/11/15 08:54:23;;;;;;;5.72;3.67;;;;;;;-145.06;100.00;60892.56;4858806;28;20033;-89
2021/11/15 08:57:05;;;;;;;4.70;3.08;;;;;;;-145.06;100.00;60892.56;4862645;28;20024;-89
2021/11/15 08:59:44;;;;;;;6.53;4.00;;;;;;;-145.06;100.00;60892.56;4872734;28;20020;-89
2021/11/15 09:02:23;;;;;;;6.53;3.65;;;;;;;-145.06;100.00;60892.56;4876981;28;20372;-89
2021/11/15 09:05:03;;;;;;;5.63;3.75;;;;;;;-145.06;100.00;60892.56;4874179;28;20478;-89
2021/11/15 09:07:43;;;;;;;4.75;3.33;;;;;;;-145.06;100.00;60892.56;4876550;28;20020;-89
2021/11/15 09:10:23;;;;;;;5.20;3.55;;;;;;;9.55;100.00;60892.56;4874682;28;20029;-89
2021/11/15 09:13:02;;;;;;;5.80;3.92;;;;;;;-145.06;100.00;60892.56;4874283;28;20029;-89
2021/11/15 09:15:41;;;;;;;4.93;3.43;;;;;;;-145.06;100.00;60892.56;4872020;28;20041;-89
2021/11/15 09:18:20;;;;;;;5.83;3.80;;;;;;;-145.06;100.00;60892.56;4867259;28;20264;-89
2021/11/15 09:21:00;;;;;;;5.13;3.90;;;;;;;-145.06;100.00;60892.56;4865434;28;20025;-89
2021/11/15 09:23:40;;;;;;;;;;;;;;;-145.06;100.00;60892.56;4876550;28;20263;-89
2021/11/15 09:26:20;;;;;;;;;;;;;;;-145.06;100.00;60892.56;4866330;28;19909;-89
2021/11/15 09:29:01;;;;;;;4.43;3.30;;;;;;;-145.06;100.00;60892.56;4873596;28;19928;-89
2021/11/15 09:31:41;;;;;;;5.55;3.13;;;;;;;-145.06;100.00;60892.56;4865261;28;20017;-89
2021/11/15 09:34:20;;;;;;;;;;;;;;;-145.06;100.00;60892.56;4863277;28;20029;-89
2021/11/15 09:36:59;;;;;;;5.40;2.85;;;;;;;-145.06;100.00;60892.56;4868332;28;19908;-88
2021/11/15 09:39:39;;;;;;;5.73;3.63;;;;;;;-145.06;100.00;60892.56;4876955;28;20028;-89
2021/11/15 09:42:18;;;;;;;4.85;3.20;;;;;;;9.40;100.00;60892.56;4867352;28;20391;-89
2021/11/15 09:44:57;;;;;;;5.68;3.78;;;;;;;-145.06;100.00;60892.56;4865952;28;20029;-88
2021/11/15 09:47:39;;;;;;;6.45;4.22;;;;;;;-145.06;100.00;60892.56;4863210;28;20486;-89
2021/11/15 09:50:18;;;;;;;5.63;3.83;;;;;;;-145.06;100.00;60892.56;4863509;28;20033;-90
2021/11/15 09:52:57;;;;;;;6.68;4.45;;;;;;;9.47;100.00;60892.56;4876181;28;20032;-89
2021/11/15 09:55:37;;;;;;;5.90;3.97;;;;;;;-145.06;100.00;60892.56;4876908;28;20033;-90
2021/11/15 09:58:16;;;;;;;;;;;;;;;-145.06;100.00;60892.56;4874975;28;20355;-89
2021/11/15 10:00:55;;;;;;;3.95;2.88;;;;;;;-145.06;100.00;60892.56;4872109;28;20440;-89
2021/11/15 10:03:34;;;;;;;4.90;3.28;;;;;;;9.45;100.00;60892.56;4875577;28;20037;-90
2021/11/15 10:06:14;;;;;;;6.38;3.80;;;;;;;-145.06;100.00;60892.56;4874539;28;20051;-89
2021/11/15 10:09:00;;;;;;;5.53;3.92;;;;;;;-145.06;100.00;60892.56;4875628;28;20157;-89
2021/11/15 10:11:47;;;;;;;6.10;3.67;;;;;;;-145.06;100.00;60892.56;4865345;28;20018;-90
2021/11/15 10:14:26;;;;;;;5.50;3.38;;;;;;;-145.06;100.00;60892.56;4856681;28;20025;-89
2021/11/15 10:17:05;;;;;;;4.78;3.10;;;;;;;-145.06;100.00;60892.56;4859311;28;20056;-90
2021/11/15 10:19:44;;;;;;;5.90;3.67;;;;;;;-145.06;100.00;60892.56;4873719;28;20029;-89
2021/11/15 10:22:29;;;;;;;5.33;3.27;;;;;;;-145.06;100.00;60892.56;4875998;28;20279;-90
2021/11/15 10:25:09;;;;;;;5.32;3.47;;;;;;;9.50;100.00;60892.56;4876404;28;20494;-89
2021/11/15 10:28:03;;;;;;;;;;;;;;;187.52;100.00;60892.56;4876810;28;20036;-88
2021/11/15 10:30:43;;;;;;;5.40;3.58;;;;;;;-145.06;100.00;60892.56;4870881;28;19909;-90
2021/11/15 10:33:41;;;;;;;5.22;3.47;;;;;;;-145.06;100.00;60892.56;4888156;28;20059;-88
2021/11/15 10:36:48;;;;;;;6.55;3.80;;;;;;;9.46;100.00;60892.56;4874378;28;20014;-88
2021/11/15 10:39:33;;;;;;;7.93;4.30;;;;;;;9.44;100.00;60892.56;4867193;28;20057;-90
2021/11/15 10:42:24;;;;;;;6.00;3.90;;;;;;;-145.06;100.00;60892.56;4866856;28;20026;-89
2021/11/15 10:45:07;;;;;;;6.18;4.20;;;;;;;-145.06;100.00;60892.56;4870013;28;20029;-89
2021/11/15 10:47:55;;;;;;;7.15;4.22;;;;;;;-145.06;100.00;60892.56;4870691;28;20030;-89
2021/11/15 10:50:54;;;;;;;6.20;4.20;;;;;;;-145.06;100.00;60892.56;4867357;28;20021;-89
2021/11/15 10:53:44;;;;;;;6.88;4.22;;;;;;;-145.06;100.00;60892.56;4859300;28;20503;-89
2021/11/15 10:56:31;;;;;;;6.10;3.95;;;;;;;-145.06;100.00;60892.56;4876544;28;20060;-89
2021/11/15 10:59:14;;;;;;;5.78;3.97;;;;;;;-145.06;100.00;60892.56;4867233;28;20021;-89
2021/11/15 11:01:53;;;;;;;6.82;4.60;;;;;;;-145.06;100.00;60892.56;4875841;28;20029;-89
2021/11/15 11:04:34;;;;;;;5.97;4.03;;;;;;;-145.06;100.00;60892.56;4876292;28;20483;-90
2021/11/15 11:07:19;;;;;;;6.78;4.03;;;;;;;-145.06;100.00;60892.56;4876531;28;20455;-88
2021/11/15 11:10:06;;;;;;;6.05;4.28;;;;;;;-145.06;100.00;60892.56;4876094;28;20029;-89
2021/11/15 11:13:14;;;;;;;6.45;4.10;;;;;;;-145.06;100.00;60892.56;4869801;28;20100;-88
2021/11/15 11:15:55;;;;;;;7.13;4.45;;;;;;;-145.06;100.00;60892.56;4868552;28;20032;-89
2021/11/15 11:18:36;;;;;;;5.55;3.47;;;;;;;-145.06;100.00;60892.56;4877797;28;20053;-89
2021/11/15 11:21:45;;;;;;;6.10;3.80;;;;;;;-145.06;100.00;60892.56;4866610;28;20074;-90
2021/11/15 11:24:41;;;;;;;6.72;4.35;;;;;;;21.08;100.00;60892.56;4861902;28;20392;-89
2021/11/15 11:27:27;;;;;;;6.05;3.85;;;;;;;-145.06;100.00;60892.56;4860156;28;20032;-88
2021/11/15 11:30:08;;;;;;;5.85;3.90;;;;;;;-145.06;100.00;60892.56;4873127;28;20033;-89
2021/11/15 11:32:51;;;;;;;5.32;3.35;;;;;;;-145.06;100.00;60892.56;4879231;28;20037;-89
2021/11/15 11:35:30;;;;;;;6.05;3.88;;;;;;;-145.06;100.00;60892.56;4875538;28;20022;-90
2021/11/15 11:38:09;;;;;;;7.13;4.50;;;;;;;-145.06;100.00;60892.56;4862297;28;20037;-89
2021/11/15 11:40:50;;;;;;;6.85;4.30;;;;;;;-145.06;100.00;60892.56;4874089;28;20033;-90
2021/11/15 11:43:30;;;;;;;8.50;4.20;;;;;;;-145.06;100.00;60892.56;4860453;28;20495;-89
2021/11/15 11:46:19;;;;;;;5.63;3.88;;;;;;;-145.06;100.00;60892.56;4885438;28;20025;-89
2021/11/15 11:48:59;;;;;;;8.32;4.38;;;;;;;-145.06;100.00;60892.56;4887451;28;20483;-90
2021/11/15 11:51:40;;;;;;;8.00;4.80;;;;;;;-145.06;100.00;60892.56;4873381;28;20020;-89
2021/11/15 11:54:27;;;;;;;8.90;4.63;;;;;;;-145.06;100.00;60892.56;4898169;28;20548;-87
2021/11/15 11:57:20;;;;;;;6.70;4.47;;;;;;;-145.06;100.00;60892.56;4879271;28;20032;-87
2021/11/15 12:00:07;;;;;;;6.97;4.45;;;;;;;-145.06;100.00;60892.56;4870393;28;20057;-88
2021/11/15 12:02:46;;;;;;;6.32;3.92;;;;;;;-145.06;100.00;60892.56;4878650;28;20025;-88
2021/11/15 12:05:30;;;;;;;6.88;4.35;;;;;;;-145.06;100.00;60892.56;4874211;28;20033;-88
2021/11/15 12:08:09;;;;;;;7.35;4.30;;;;;;;-145.06;100.00;60892.56;4878486;28;20029;-86
2021/11/15 12:10:55;;;;;;;7.60;4.80;;;;;;;-145.06;100.00;60892.56;4875828;28;20017;-88
2021/11/15 12:13:45;;;;;;;8.05;4.20;;;;;;;-145.06;100.00;60892.56;4874228;28;20021;-88
2021/11/15 12:16:24;;;;;;;;;;;;;;;-145.06;100.00;60892.56;4898992;28;20029;-87